createdAt,value
2023-12-16T00:01:01.202Z,2.50
2023-12-16T00:03:38.077Z,2.45
2023-12-16T00:06:32.343Z,2.35
2023-12-16T00:09:08.282Z,2.57
2023-12-16T00:12:03.214Z,2.39
2023-12-16T00:14:56.272Z,2.47
2023-12-16T00:17:31.660Z,2.47
2023-12-16T00:20:05.990Z,2.49
2023-12-16T00:22:46.181Z,2.36
2023-12-16T00:25:33.719Z,2.53
2023-12-16T00:28:19.767Z,2.44
2023-12-16T00:30:58.005Z,2.51
2023-12-16T00:36:31.173Z,2.30
2023-12-16T00:39:09.488Z,2.13
2023-12-16T00:41:52.895Z,2.14
2023-12-16T00:44:37.689Z,1.99
2023-12-16T00:47:15.297Z,1.87
2023-12-16T00:50:04.926Z,1.81
2023-12-16T00:52:40.345Z,1.79
2023-12-16T00:55:28.859Z,1.69
2023-12-16T00:58:14.378Z,1.69
2023-12-16T01:00:51.309Z,1.66
2023-12-16T01:03:30.683Z,1.73
2023-12-16T01:06:08.339Z,1.65
2023-12-16T01:08:52.875Z,1.63
2023-12-16T01:11:38.794Z,1.66
2023-12-16T01:14:14.493Z,1.52
2023-12-16T01:17:02.363Z,1.63
2023-12-16T01:19:42.333Z,1.62
2023-12-16T01:22:21.314Z,1.51
2023-12-16T01:25:07.558Z,1.59
2023-12-16T01:27:57.184Z,1.56
2023-12-16T01:30:31.127Z,1.62
2023-12-16T01:33:07.699Z,1.66
2023-12-16T01:35:43.720Z,1.70
2023-12-16T01:38:22.925Z,1.75
2023-12-16T01:40:58.261Z,1.52
2023-12-16T01:43:32.701Z,1.72
2023-12-16T01:46:17.746Z,1.76
2023-12-16T01:48:55.905Z,1.84
2023-12-16T01:51:27.208Z,1.82
2023-12-16T01:54:03.005Z,1.75
2023-12-16T01:56:36.931Z,1.69
2023-12-16T01:59:19.746Z,1.67
2023-12-16T02:02:06.902Z,1.65
2023-12-16T02:04:44.011Z,1.71
2023-12-16T02:07:17.143Z,1.82
2023-12-16T02:09:59.757Z,1.68
2023-12-16T02:12:42.990Z,1.68
2023-12-16T02:15:27.695Z,1.70
2023-12-16T02:18:11.006Z,1.56
2023-12-16T02:20:57.535Z,1.56
2023-12-16T02:23:40.120Z,1.61
2023-12-16T02:26:20.641Z,1.67
2023-12-16T02:29:01.078Z,1.50
2023-12-16T02:31:40.570Z,1.43
2023-12-16T02:34:13.057Z,1.48
2023-12-16T02:36:52.021Z,1.33
2023-12-16T02:39:31.862Z,1.25
2023-12-16T02:42:11.364Z,1.14
2023-12-16T02:44:58.431Z,1.10
2023-12-16T02:47:36.566Z,1.12
2023-12-16T02:50:14.542Z,1.16
2023-12-16T02:52:49.683Z,1.25
2023-12-16T02:55:35.930Z,1.43
2023-12-16T02:58:24.139Z,1.33
2023-12-16T03:00:59.602Z,1.17
2023-12-16T03:03:33.284Z,1.12
2023-12-16T03:06:18.632Z,1.19
2023-12-16T03:08:54.634Z,1.09
2023-12-16T03:11:36.014Z,1.21
2023-12-16T03:17:02.696Z,1.16
2023-12-16T03:19:41.312Z,1.24
2023-12-16T03:22:19.251Z,1.18
2023-12-16T03:25:00.343Z,1.25
2023-12-16T03:27:41.220Z,1.21
2023-12-16T03:30:30.733Z,1.16
2023-12-16T03:33:20.025Z,1.01
2023-12-16T03:36:01.774Z,1.06
2023-12-16T03:38:35.343Z,1.13
2023-12-16T03:41:22.617Z,1.09
2023-12-16T03:44:03.208Z,1.09
2023-12-16T03:46:47.445Z,1.07
2023-12-16T03:49:41.051Z,1.16
2023-12-16T03:52:19.706Z,1.16
2023-12-16T03:55:17.030Z,1.15
2023-12-16T03:57:57.465Z,1.16
2023-12-16T04:00:52.399Z,1.02
2023-12-16T04:03:34.206Z,1.15
2023-12-16T04:06:18.214Z,1.02
2023-12-16T04:08:53.758Z,1.13
2023-12-16T04:11:40.314Z,1.10
2023-12-16T04:14:33.982Z,1.16
2023-12-16T04:17:15.552Z,0.85
2023-12-16T04:19:59.822Z,1.14
2023-12-16T04:22:39.285Z,1.08
2023-12-16T04:25:22.288Z,1.23
2023-12-16T04:28:01.946Z,1.07
2023-12-16T04:30:37.032Z,1.06
2023-12-16T04:33:21.536Z,1.09
2023-12-16T04:36:07.675Z,1.12
2023-12-16T04:38:46.425Z,1.14
2023-12-16T04:41:27.011Z,1.19
2023-12-16T04:44:07.200Z,1.21
2023-12-16T04:46:41.888Z,1.22
2023-12-16T04:49:23.593Z,1.04
2023-12-16T04:52:00.884Z,1.15
2023-12-16T04:54:37.444Z,1.08
2023-12-16T04:57:18.805Z,1.10
2023-12-16T05:00:01.510Z,1.06
2023-12-16T05:02:35.682Z,1.17
2023-12-16T05:05:16.140Z,1.13
2023-12-16T05:07:55.627Z,1.18
2023-12-16T05:10:35.064Z,1.22
2023-12-16T05:13:13.294Z,1.32
2023-12-16T05:15:57.302Z,1.25
2023-12-16T05:18:29.540Z,1.23
2023-12-16T05:21:20.586Z,1.20
2023-12-16T05:23:59.663Z,1.33
2023-12-16T05:26:41.938Z,1.47
2023-12-16T05:29:18.354Z,1.54
2023-12-16T05:31:58.916Z,1.57
2023-12-16T05:34:43.602Z,1.63
2023-12-16T05:37:26.195Z,1.79
2023-12-16T05:40:06.120Z,1.92
2023-12-16T05:42:44.847Z,2.04
2023-12-16T05:45:21.977Z,2.12
2023-12-16T05:47:55.275Z,2.20
2023-12-16T05:50:30.238Z,2.27
2023-12-16T05:53:10.166Z,2.31
2023-12-16T05:55:50.529Z,2.35
2023-12-16T05:58:30.615Z,2.34
2023-12-16T06:01:04.236Z,2.40
2023-12-16T06:03:41.437Z,2.36
2023-12-16T06:06:18.909Z,2.45
2023-12-16T06:08:59.780Z,2.35
2023-12-16T06:11:42.618Z,2.40
2023-12-16T06:14:28.915Z,2.42
2023-12-16T06:17:06.479Z,2.42
2023-12-16T06:19:47.027Z,2.38
2023-12-16T06:22:30.823Z,2.37
2023-12-16T06:25:07.124Z,2.31
2023-12-16T06:27:51.003Z,2.19
2023-12-16T06:30:30.446Z,2.22
2023-12-16T06:33:31.423Z,2.17
2023-12-16T06:36:04.759Z,2.05
2023-12-16T06:38:49.455Z,2.12
2023-12-16T06:41:42.144Z,2.13
2023-12-16T06:44:20.974Z,2.09
2023-12-16T06:47:02.669Z,2.03
2023-12-16T06:49:45.483Z,2.08
2023-12-16T06:52:25.758Z,2.09
2023-12-16T06:55:02.287Z,2.05
2023-12-16T06:57:53.694Z,2.02
2023-12-16T07:00:41.633Z,2.01
2023-12-16T07:03:19.128Z,1.92
2023-12-16T07:05:52.904Z,1.82
2023-12-16T07:08:37.840Z,2.06
2023-12-16T07:11:15.411Z,1.99
2023-12-16T07:13:56.091Z,2.06
2023-12-16T07:16:36.422Z,2.04
2023-12-16T07:19:15.808Z,1.97
2023-12-16T07:21:49.979Z,2.09
2023-12-16T07:24:30.875Z,2.17
2023-12-16T07:27:11.165Z,2.12
2023-12-16T07:30:03.013Z,2.02
2023-12-16T07:32:38.860Z,2.10
2023-12-16T07:35:21.007Z,2.14
2023-12-16T07:37:56.257Z,2.11
2023-12-16T07:40:34.039Z,2.08
2023-12-16T07:43:21.052Z,2.20
2023-12-16T07:46:04.692Z,2.15
2023-12-16T07:48:40.954Z,2.12
2023-12-16T07:51:30.842Z,2.16
2023-12-16T07:54:08.487Z,2.08
2023-12-16T07:56:49.049Z,2.04
2023-12-16T07:59:35.384Z,2.09
2023-12-16T08:02:18.417Z,2.19
2023-12-16T08:04:56.449Z,2.28
2023-12-16T08:07:34.889Z,2.24
2023-12-16T08:10:18.981Z,2.34
2023-12-16T08:12:53.409Z,2.40
2023-12-16T08:15:32.509Z,2.38
2023-12-16T08:18:11.459Z,2.26
2023-12-16T08:20:47.572Z,2.54
2023-12-16T08:23:27.320Z,2.66
2023-12-16T08:26:08.593Z,2.59
2023-12-16T08:28:53.043Z,2.75
2023-12-16T08:34:27.939Z,2.76
2023-12-16T08:37:09.246Z,2.73
2023-12-16T08:39:51.849Z,2.82
2023-12-16T08:42:29.013Z,2.69
2023-12-16T08:45:01.586Z,2.69
2023-12-16T08:47:51.287Z,2.90
2023-12-16T08:50:31.651Z,2.85
2023-12-16T08:53:16.098Z,2.86
2023-12-16T08:55:54.295Z,3.01
2023-12-16T08:58:32.373Z,3.15
2023-12-16T09:01:12.103Z,3.12
2023-12-16T09:03:53.743Z,3.22
2023-12-16T09:06:42.186Z,2.96
2023-12-16T09:09:20.872Z,3.04
2023-12-16T09:11:54.899Z,3.07
2023-12-16T09:14:39.642Z,3.02
2023-12-16T09:17:11.747Z,3.12
2023-12-16T09:19:46.392Z,3.22
2023-12-16T09:22:41.455Z,3.01
2023-12-16T09:25:16.182Z,3.27
2023-12-16T09:27:51.993Z,3.32
2023-12-16T09:30:28.230Z,3.21
2023-12-16T09:33:08.123Z,3.31
2023-12-16T09:35:59.538Z,3.25
2023-12-16T09:38:46.167Z,3.57
2023-12-16T09:41:31.121Z,3.45
2023-12-16T09:44:17.571Z,3.64
2023-12-16T09:46:54.042Z,3.64
2023-12-16T09:49:32.385Z,3.67
2023-12-16T09:52:10.831Z,3.64
2023-12-16T09:55:02.996Z,3.65
2023-12-16T09:57:41.347Z,3.57
2023-12-16T10:00:21.093Z,3.54
2023-12-16T10:02:54.576Z,3.53
2023-12-16T10:05:38.174Z,3.54
2023-12-16T10:08:18.473Z,3.55
2023-12-16T10:11:13.512Z,3.59
2023-12-16T10:14:09.154Z,3.61
2023-12-16T10:16:59.097Z,3.75
2023-12-16T10:19:37.905Z,3.78
2023-12-16T10:22:20.905Z,3.91
2023-12-16T10:24:59.172Z,3.98
2023-12-16T10:27:38.418Z,4.02
2023-12-16T10:30:22.674Z,4.05
2023-12-16T10:33:08.102Z,4.20
2023-12-16T10:35:48.215Z,4.19
2023-12-16T10:38:29.136Z,4.15
2023-12-16T10:41:07.247Z,3.99
2023-12-16T10:43:58.212Z,4.02
2023-12-16T10:46:45.160Z,4.12
2023-12-16T10:49:27.574Z,4.08
2023-12-16T10:52:24.405Z,4.17
2023-12-16T10:55:13.143Z,4.31
2023-12-16T10:58:18.589Z,4.13
2023-12-16T11:01:18.882Z,4.03
2023-12-16T11:04:22.680Z,3.94
2023-12-16T11:07:13.692Z,4.04
2023-12-16T11:12:24.901Z,4.11
2023-12-16T11:14:59.347Z,4.22
2023-12-16T11:17:39.361Z,4.34
2023-12-16T11:20:17.941Z,4.17
2023-12-16T11:22:53.449Z,4.32
2023-12-16T11:25:35.325Z,4.42
2023-12-16T11:28:18.240Z,4.39
2023-12-16T11:30:57.454Z,4.46
2023-12-16T11:33:51.899Z,4.51
2023-12-16T11:37:01.886Z,4.63
2023-12-16T11:39:53.859Z,4.68
2023-12-16T11:42:56.791Z,4.62
2023-12-16T11:45:46.392Z,4.69
2023-12-16T11:48:24.926Z,4.69
2023-12-16T11:51:11.781Z,4.78
2023-12-16T11:53:50.822Z,4.75
2023-12-16T11:56:30.423Z,4.80
2023-12-16T11:59:01.770Z,4.96
2023-12-16T12:02:09.602Z,5.06
2023-12-16T12:04:45.502Z,4.92
2023-12-16T12:07:29.408Z,5.04
2023-12-16T12:12:54.475Z,5.02
2023-12-16T12:15:30.324Z,4.98
2023-12-16T12:18:07.758Z,5.04
2023-12-16T12:20:45.617Z,4.94
2023-12-16T12:23:38.447Z,4.77
2023-12-16T12:26:18.913Z,4.90
2023-12-16T12:29:16.157Z,4.93
2023-12-16T12:32:05.086Z,4.79
2023-12-16T12:34:45.373Z,4.62
2023-12-16T12:37:26.635Z,4.57
2023-12-16T12:40:13.515Z,4.50
2023-12-16T12:43:04.469Z,4.40
2023-12-16T12:45:44.049Z,4.46
2023-12-16T12:48:21.305Z,4.47
2023-12-16T12:51:13.397Z,4.43
2023-12-16T12:53:51.501Z,4.39
2023-12-16T12:56:37.205Z,4.57
2023-12-16T12:59:57.687Z,4.67
2023-12-16T13:02:35.003Z,4.33
2023-12-16T13:05:21.865Z,4.78
2023-12-16T13:07:56.309Z,4.79
2023-12-16T13:10:37.084Z,4.85
2023-12-16T13:13:20.326Z,4.79
2023-12-16T13:15:59.291Z,4.70
2023-12-16T13:18:48.079Z,4.76
2023-12-16T13:21:29.049Z,4.76
2023-12-16T13:24:00.226Z,4.68
2023-12-16T13:26:54.514Z,5.50
2023-12-16T13:29:32.925Z,8.08
2023-12-16T13:32:11.957Z,9.39
2023-12-16T13:34:45.254Z,10.26
2023-12-16T13:37:28.880Z,9.90
2023-12-16T13:40:15.083Z,9.86
2023-12-16T13:43:08.635Z,10.24
2023-12-16T13:45:50.293Z,10.70
2023-12-16T13:48:24.031Z,10.30
2023-12-16T13:50:58.409Z,10.17
2023-12-16T13:53:33.619Z,10.03
2023-12-16T13:56:25.617Z,9.72
2023-12-16T13:59:15.047Z,10.01
2023-12-16T14:02:08.944Z,10.37
2023-12-16T14:05:10.452Z,10.18
2023-12-16T14:07:51.506Z,9.75
2023-12-16T14:10:31.190Z,9.50
2023-12-16T14:13:12.282Z,9.66
2023-12-16T14:15:57.970Z,9.03
2023-12-16T14:18:42.987Z,8.53
2023-12-16T14:21:31.107Z,7.92
2023-12-16T14:24:09.178Z,7.48
2023-12-16T14:26:49.552Z,7.23
2023-12-16T14:29:36.404Z,7.04
2023-12-16T14:32:24.257Z,6.60
2023-12-16T14:35:02.439Z,6.54
2023-12-16T14:37:54.697Z,6.44
2023-12-16T14:40:39.825Z,6.37
2023-12-16T14:43:24.145Z,6.04
2023-12-16T14:46:20.739Z,6.18
2023-12-16T14:48:59.740Z,6.13
2023-12-16T14:51:47.226Z,6.02
2023-12-16T14:54:24.226Z,6.04
2023-12-16T14:57:13.053Z,6.04
2023-12-16T14:59:58.274Z,6.03
2023-12-16T15:02:30.773Z,6.03
2023-12-16T15:05:05.398Z,6.03
2023-12-16T15:07:41.531Z,6.01
2023-12-16T15:10:21.220Z,6.02
2023-12-16T15:13:13.935Z,5.97
2023-12-16T15:16:04.732Z,5.95
2023-12-16T15:18:48.185Z,5.98
2023-12-16T15:21:20.510Z,5.93
2023-12-16T15:23:57.147Z,5.86
2023-12-16T15:26:38.103Z,5.86
2023-12-16T15:29:18.405Z,5.68
2023-12-16T15:31:59.064Z,5.76
2023-12-16T15:34:48.555Z,5.73
2023-12-16T15:37:32.520Z,5.67
2023-12-16T15:40:14.950Z,5.62
2023-12-16T15:42:59.742Z,5.53
2023-12-16T15:45:37.676Z,5.48
2023-12-16T15:48:22.652Z,5.42
2023-12-16T15:51:05.779Z,5.41
2023-12-16T15:53:49.997Z,5.38
2023-12-16T15:56:20.853Z,5.33
2023-12-16T15:59:06.102Z,5.26
2023-12-16T16:01:49.430Z,5.18
2023-12-16T16:04:25.228Z,5.15
2023-12-16T16:07:08.761Z,5.11
2023-12-16T16:09:48.604Z,5.05
2023-12-16T16:12:29.146Z,5.02
2023-12-16T16:15:30.664Z,4.96
2023-12-16T16:18:09.140Z,4.87
2023-12-16T16:20:45.234Z,4.88
2023-12-16T16:23:17.538Z,4.74
2023-12-16T16:25:55.917Z,4.83
2023-12-16T16:28:31.004Z,4.80
2023-12-16T16:31:26.234Z,4.73
2023-12-16T16:34:04.363Z,4.78
2023-12-16T16:36:35.704Z,4.76
2023-12-16T16:39:15.391Z,4.76
2023-12-16T16:42:01.831Z,4.73
2023-12-16T16:44:46.661Z,4.74
2023-12-16T16:47:41.285Z,4.72
2023-12-16T16:50:29.822Z,4.70
2023-12-16T16:53:09.805Z,4.70
2023-12-16T16:55:48.168Z,4.67
2023-12-16T16:58:25.105Z,4.68
2023-12-16T17:01:07.225Z,4.48
2023-12-16T17:03:41.430Z,4.65
2023-12-16T17:06:12.084Z,4.64
2023-12-16T17:08:50.187Z,4.61
2023-12-16T17:11:27.503Z,4.56
2023-12-16T17:14:09.514Z,4.49
2023-12-16T17:16:55.629Z,4.44
2023-12-16T17:19:39.660Z,4.33
2023-12-16T17:22:11.433Z,4.29
2023-12-16T17:24:44.929Z,4.27
2023-12-16T17:27:22.940Z,4.35
2023-12-16T17:30:03.031Z,4.34
2023-12-16T17:32:39.354Z,4.30
2023-12-16T17:35:26.114Z,4.27
2023-12-16T17:38:09.095Z,4.22
2023-12-16T17:40:48.571Z,4.24
2023-12-16T17:43:35.063Z,4.25
2023-12-16T17:46:21.864Z,4.25
2023-12-16T17:49:20.515Z,4.01
2023-12-16T17:52:14.884Z,4.22
2023-12-16T17:54:52.925Z,4.19
2023-12-16T17:57:38.865Z,4.21
2023-12-16T18:00:22.543Z,4.15
2023-12-16T18:02:56.268Z,4.13
2023-12-16T18:05:43.932Z,4.10
2023-12-16T18:08:29.467Z,4.05
2023-12-16T18:11:11.336Z,4.06
2023-12-16T18:13:52.952Z,4.05
2023-12-16T18:16:34.895Z,4.01
2023-12-16T18:19:15.480Z,3.97
2023-12-16T18:21:50.220Z,3.94
2023-12-16T18:24:27.910Z,3.91
2023-12-16T18:27:06.149Z,3.84
2023-12-16T18:29:41.368Z,3.84
2023-12-16T18:32:18.638Z,3.73
2023-12-16T18:34:54.170Z,3.76
2023-12-16T18:37:35.556Z,3.52
2023-12-16T18:40:31.494Z,3.65
2023-12-16T18:43:18.046Z,3.59
2023-12-16T18:45:55.442Z,3.37
2023-12-16T18:48:35.124Z,3.53
2023-12-16T18:51:14.535Z,3.48
2023-12-16T18:53:52.413Z,3.45
2023-12-16T18:56:40.709Z,3.32
2023-12-16T18:59:18.172Z,3.44
2023-12-16T19:01:52.062Z,3.48
2023-12-16T19:04:26.230Z,3.42
2023-12-16T19:07:00.808Z,3.38
2023-12-16T19:09:43.507Z,3.38
2023-12-16T19:12:29.648Z,3.39
2023-12-16T19:15:14.897Z,3.35
2023-12-16T19:17:51.197Z,3.33
2023-12-16T19:20:25.256Z,3.34
2023-12-16T19:22:58.996Z,3.29
2023-12-16T19:25:42.723Z,3.31
2023-12-16T19:28:21.777Z,3.31
2023-12-16T19:31:05.582Z,3.27
2023-12-16T19:33:47.530Z,3.32
2023-12-16T19:36:29.921Z,3.26
2023-12-16T19:39:03.577Z,3.21
2023-12-16T19:41:35.196Z,3.25
2023-12-16T19:44:21.978Z,3.23
2023-12-16T19:47:12.653Z,3.23
2023-12-16T19:49:54.930Z,3.25
2023-12-16T19:52:45.296Z,3.26
2023-12-16T19:55:19.816Z,3.21
2023-12-16T19:57:57.581Z,3.23
2023-12-16T20:00:52.762Z,3.25
2023-12-16T20:03:33.312Z,3.21
2023-12-16T20:06:08.026Z,3.21
2023-12-16T20:08:59.866Z,3.03
2023-12-16T20:11:34.541Z,3.02
2023-12-16T20:14:11.336Z,2.93
2023-12-16T20:16:58.734Z,3.01
2023-12-16T20:19:37.788Z,3.00
2023-12-16T20:22:19.339Z,3.04
2023-12-16T20:24:53.770Z,3.07
2023-12-16T20:27:30.956Z,3.11
2023-12-16T20:30:04.191Z,3.11
2023-12-16T20:32:37.479Z,3.14
2023-12-16T20:35:12.705Z,3.15
2023-12-16T20:37:57.902Z,3.01
2023-12-16T20:40:40.910Z,3.13
2023-12-16T20:43:18.269Z,3.12
2023-12-16T20:45:56.195Z,3.08
2023-12-16T20:48:45.038Z,3.04
2023-12-16T20:51:20.682Z,3.03
2023-12-16T20:54:00.119Z,3.03
2023-12-16T20:56:44.882Z,2.97
2023-12-16T20:59:23.155Z,3.04
2023-12-16T21:02:02.116Z,3.02
2023-12-16T21:04:40.773Z,3.02
2023-12-16T21:07:22.344Z,3.01
2023-12-16T21:09:56.911Z,2.98
2023-12-16T21:12:35.140Z,2.99
2023-12-16T21:15:19.443Z,2.89
2023-12-16T21:18:22.291Z,2.97
2023-12-16T21:21:11.224Z,2.88
2023-12-16T21:23:50.826Z,2.94
2023-12-16T21:26:28.843Z,2.89
2023-12-16T21:29:06.231Z,2.86
2023-12-16T21:31:37.388Z,2.90
2023-12-16T21:34:14.730Z,2.90
2023-12-16T21:37:02.901Z,2.90
2023-12-16T21:39:37.964Z,2.88
2023-12-16T21:42:17.432Z,2.89
2023-12-16T21:44:57.259Z,2.80
2023-12-16T21:47:37.532Z,2.82
2023-12-16T21:50:15.527Z,2.77
2023-12-16T21:52:53.421Z,2.77
2023-12-16T21:55:28.184Z,2.76
2023-12-16T21:58:10.203Z,2.75
2023-12-16T22:00:50.049Z,2.74
2023-12-16T22:03:30.381Z,2.73
2023-12-16T22:06:03.997Z,2.68
2023-12-16T22:08:53.079Z,2.69
2023-12-16T22:11:38.121Z,2.70
2023-12-16T22:14:16.570Z,2.57
2023-12-16T22:16:54.547Z,2.62
2023-12-16T22:19:33.153Z,2.58
2023-12-16T22:22:11.119Z,2.55
2023-12-16T22:24:59.781Z,2.53
2023-12-16T22:27:36.436Z,2.59
2023-12-16T22:30:13.260Z,2.56
2023-12-16T22:32:59.658Z,2.55
2023-12-16T22:35:39.523Z,2.57
2023-12-16T22:38:19.518Z,2.56
2023-12-16T22:40:55.856Z,2.58
2023-12-16T22:43:32.835Z,2.56
2023-12-16T22:46:09.987Z,2.58
2023-12-16T22:48:49.401Z,2.58
2023-12-16T22:51:25.991Z,2.57
2023-12-16T22:54:04.028Z,2.54
2023-12-16T22:56:41.174Z,2.51
2023-12-16T22:59:20.401Z,2.45
2023-12-16T23:01:57.770Z,2.42
2023-12-16T23:04:40.534Z,2.39
2023-12-16T23:07:33.561Z,2.31
2023-12-16T23:10:24.632Z,2.32
2023-12-16T23:13:05.556Z,2.34
2023-12-16T23:15:41.733Z,2.24
2023-12-16T23:18:13.324Z,2.26
2023-12-16T23:20:55.347Z,2.29
2023-12-16T23:23:36.071Z,2.22
2023-12-16T23:26:12.871Z,2.24
2023-12-16T23:28:51.526Z,2.16
2023-12-16T23:31:30.280Z,2.19
2023-12-16T23:34:10.887Z,2.13
2023-12-16T23:36:48.532Z,2.21
2023-12-16T23:39:22.563Z,2.19
2023-12-16T23:42:03.345Z,2.18
2023-12-16T23:44:51.621Z,2.18
2023-12-16T23:47:31.702Z,2.20
2023-12-16T23:50:13.995Z,2.18
2023-12-16T23:52:52.686Z,2.08
2023-12-16T23:55:40.835Z,2.20
2023-12-16T23:58:21.713Z,2.19
